sensor_id;sensor_type;location;lat;lon;timestamp;pressure;altitude;pressure_sealevel;temperature;humidity
71774;BME280;59607;52.130;5.430;2023-01-30T00:01:54;101815.59;;;6.38;100.00
71774;BME280;59607;52.130;5.430;2023-01-30T00:04:21;101811.13;;;6.40;100.00
71774;BME280;59607;52.130;5.430;2023-01-30T00:06:50;101801.53;;;6.40;100.00
71774;BME280;59607;52.130;5.430;2023-01-30T00:09:20;101798.72;;;6.44;100.00
71774;BME280;59607;52.130;5.430;2023-01-30T00:11:50;101806.31;;;6.47;100.00
71774;BME280;59607;52.130;5.430;2023-01-30T00:14:17;101812.13;;;6.50;100.00
71774;BME280;59607;52.130;5.430;2023-01-30T00:16:43;101811.06;;;6.53;100.00
71774;BME280;59607;52.130;5.430;2023-01-30T00:19:10;101811.78;;;6.55;100.00
71774;BME280;59607;52.130;5.430;2023-01-30T00:21:53;101793.31;;;6.58;100.00
71774;BME280;59607;52.130;5.430;2023-01-30T00:24:22;101789.53;;;6.62;100.00
71774;BME280;59607;52.130;5.430;2023-01-30T00:26:49;101765.97;;;6.64;100.00
71774;BME280;59607;52.130;5.430;2023-01-30T00:29:16;101765.03;;;6.65;100.00
71774;BME280;59607;52.130;5.430;2023-01-30T00:31:42;101770.84;;;6.69;100.00
71774;BME280;59607;52.130;5.430;2023-01-30T00:34:09;101764.81;;;6.68;100.00
71774;BME280;59607;52.130;5.430;2023-01-30T00:36:35;101755.06;;;6.70;100.00
71774;BME280;59607;52.130;5.430;2023-01-30T00:39:04;101744.41;;;6.73;100.00
71774;BME280;59607;52.130;5.430;2023-01-30T00:41:34;101739.81;;;6.77;100.00
71774;BME280;59607;52.130;5.430;2023-01-30T00:44:19;101729.25;;;6.78;100.00
71774;BME280;59607;52.130;5.430;2023-01-30T00:47:05;101730.81;;;6.81;100.00
71774;BME280;59607;52.130;5.430;2023-01-30T00:49:39;101742.69;;;6.85;100.00
71774;BME280;59607;52.130;5.430;2023-01-30T00:52:07;101741.59;;;6.88;100.00
71774;BME280;59607;52.130;5.430;2023-01-30T00:54:56;101733.53;;;6.91;100.00
71774;BME280;59607;52.130;5.430;2023-01-30T00:57:26;101740.22;;;6.95;100.00
71774;BME280;59607;52.130;5.430;2023-01-30T00:59:52;101738.31;;;6.97;100.00
71774;BME280;59607;52.130;5.430;2023-01-30T01:02:25;101732.88;;;7.00;100.00
71774;BME280;59607;52.130;5.430;2023-01-30T01:04:51;101726.69;;;7.01;100.00
71774;BME280;59607;52.130;5.430;2023-01-30T01:07:22;101731.69;;;7.04;100.00
71774;BME280;59607;52.130;5.430;2023-01-30T01:09:48;101714.13;;;7.07;100.00
71774;BME280;59607;52.130;5.430;2023-01-30T01:12:15;101696.81;;;7.06;100.00
71774;BME280;59607;52.130;5.430;2023-01-30T01:14:41;101694.19;;;7.06;100.00
71774;BME280;59607;52.130;5.430;2023-01-30T01:17:27;101700.25;;;7.06;100.00
71774;BME280;59607;52.130;5.430;2023-01-30T01:19:54;101707.97;;;7.08;100.00
71774;BME280;59607;52.130;5.430;2023-01-30T01:22:20;101693.16;;;7.08;100.00
71774;BME280;59607;52.130;5.430;2023-01-30T01:24:53;101685.44;;;7.07;100.00
71774;BME280;59607;52.130;5.430;2023-01-30T01:27:21;101682.59;;;7.10;100.00
71774;BME280;59607;52.130;5.430;2023-01-30T01:29:50;101681.75;;;7.09;100.00
71774;BME280;59607;52.130;5.430;2023-01-30T01:32:16;101685.31;;;7.08;100.00
71774;BME280;59607;52.130;5.430;2023-01-30T01:34:53;101688.78;;;7.09;100.00
71774;BME280;59607;52.130;5.430;2023-01-30T01:37:33;101674.88;;;7.08;100.00
71774;BME280;59607;52.130;5.430;2023-01-30T01:39:59;101669.66;;;7.08;100.00
71774;BME280;59607;52.130;5.430;2023-01-30T01:42:54;101664.56;;;7.07;100.00
71774;BME280;59607;52.130;5.430;2023-01-30T01:45:23;101663.72;;;7.06;100.00
71774;BME280;59607;52.130;5.430;2023-01-30T01:48:11;101671.44;;;7.08;100.00
71774;BME280;59607;52.130;5.430;2023-01-30T01:50:57;101680.22;;;7.07;100.00
71774;BME280;59607;52.130;5.430;2023-01-30T01:54:23;101675.84;;;7.07;100.00
71774;BME280;59607;52.130;5.430;2023-01-30T01:59:58;101664.56;;;7.07;100.00
71774;BME280;59607;52.130;5.430;2023-01-30T02:02:27;101659.34;;;7.07;100.00
71774;BME280;59607;52.130;5.430;2023-01-30T02:04:56;101660.19;;;7.07;100.00
71774;BME280;59607;52.130;5.430;2023-01-30T02:07:38;101652.47;;;7.06;100.00
71774;BME280;59607;52.130;5.430;2023-01-30T02:10:26;101661.97;;;7.07;100.00
71774;BME280;59607;52.130;5.430;2023-01-30T02:12:57;101657.69;;;7.06;100.00
71774;BME280;59607;52.130;5.430;2023-01-30T02:15:23;101652.47;;;7.06;100.00
71774;BME280;59607;52.130;5.430;2023-01-30T02:17:49;101666.22;;;7.08;100.00
71774;BME280;59607;52.130;5.430;2023-01-30T02:20:27;101651.28;;;7.10;100.00
71774;BME280;59607;52.130;5.430;2023-01-30T02:29:21;101651.06;;;7.13;100.00
71774;BME280;59607;52.130;5.430;2023-01-30T02:40:16;101646.66;;;7.13;100.00
71774;BME280;59607;52.130;5.430;2023-01-30T02:42:56;101647.59;;;7.12;100.00
71774;BME280;59607;52.130;5.430;2023-01-30T02:45:36;101639.09;;;7.10;100.00
71774;BME280;59607;52.130;5.430;2023-01-30T02:48:35;101643.47;;;7.10;100.00
71774;BME280;59607;52.130;5.430;2023-01-30T02:51:16;101637.28;;;7.11;100.00
71774;BME280;59607;52.130;5.430;2023-01-30T02:54:11;101638.25;;;7.10;100.00
71774;BME280;59607;52.130;5.430;2023-01-30T02:56:52;101634.09;;;7.07;100.00
71774;BME280;59607;52.130;5.430;2023-01-30T02:59:25;101641.81;;;7.09;100.00
71774;BME280;59607;52.130;5.430;2023-01-30T03:05:03;101630.31;;;7.11;100.00
71774;BME280;59607;52.130;5.430;2023-01-30T03:10:48;101632.78;;;7.13;100.00
71774;BME280;59607;52.130;5.430;2023-01-30T03:16:25;101624.59;;;7.18;100.00
71774;BME280;59607;52.130;5.430;2023-01-30T03:19:05;101623.88;;;7.15;100.00
71774;BME280;59607;52.130;5.430;2023-01-30T03:21:45;101614.28;;;7.16;100.00
71774;BME280;59607;52.130;5.430;2023-01-30T03:24:12;101616.06;;;7.15;100.00
71774;BME280;59607;52.130;5.430;2023-01-30T03:26:57;101613.31;;;7.17;100.00
71774;BME280;59607;52.130;5.430;2023-01-30T03:29:26;101604.56;;;7.18;100.00
71774;BME280;59607;52.130;5.430;2023-01-30T03:31:53;101610.72;;;7.17;100.00
71774;BME280;59607;52.130;5.430;2023-01-30T03:34:19;101614.88;;;7.20;100.00
71774;BME280;59607;52.130;5.430;2023-01-30T03:36:53;101611.19;;;7.22;100.00
71774;BME280;59607;52.130;5.430;2023-01-30T03:39:22;101608.44;;;7.24;100.00
71774;BME280;59607;52.130;5.430;2023-01-30T03:41:55;101605.72;;;7.25;100.00
71774;BME280;59607;52.130;5.430;2023-01-30T03:44:22;101616.88;;;7.27;100.00
71774;BME280;59607;52.130;5.430;2023-01-30T03:47:00;101608.81;;;7.31;100.00
71774;BME280;59607;52.130;5.430;2023-01-30T03:49:30;101605.09;;;7.33;100.00
71774;BME280;59607;52.130;5.430;2023-01-30T03:52:08;101599.75;;;7.35;100.00
71774;BME280;59607;52.130;5.430;2023-01-30T03:54:44;101595.25;;;7.37;100.00
71774;BME280;59607;52.130;5.430;2023-01-30T03:57:13;101599.44;;;7.39;100.00
71774;BME280;59607;52.130;5.430;2023-01-30T03:59:42;101604.28;;;7.44;100.00
71774;BME280;59607;52.130;5.430;2023-01-30T04:02:09;101591.22;;;7.44;100.00
71774;BME280;59607;52.130;5.430;2023-01-30T04:04:36;101598.81;;;7.47;100.00
71774;BME280;59607;52.130;5.430;2023-01-30T04:07:02;101594.38;;;7.48;100.00
71774;BME280;59607;52.130;5.430;2023-01-30T04:09:31;101601.03;;;7.52;100.00
71774;BME280;59607;52.130;5.430;2023-01-30T04:12:00;101593.09;;;7.53;100.00
71774;BME280;59607;52.130;5.430;2023-01-30T04:14:30;101596.53;;;7.54;100.00
71774;BME280;59607;52.130;5.430;2023-01-30T04:16:56;101605.88;;;7.57;100.00
71774;BME280;59607;52.130;5.430;2023-01-30T04:19:25;101592.84;;;7.57;100.00
71774;BME280;59607;52.130;5.430;2023-01-30T04:21:54;101608.25;;;7.60;100.00
71774;BME280;59607;52.130;5.430;2023-01-30T04:24:20;101608.13;;;7.61;100.00
71774;BME280;59607;52.130;5.430;2023-01-30T04:26:47;101610.63;;;7.63;100.00
71774;BME280;59607;52.130;5.430;2023-01-30T04:29:34;101617.59;;;7.62;100.00
71774;BME280;59607;52.130;5.430;2023-01-30T04:32:03;101612.38;;;7.62;100.00
71774;BME280;59607;52.130;5.430;2023-01-30T04:34:29;101590.69;;;7.62;100.00
71774;BME280;59607;52.130;5.430;2023-01-30T04:37:03;101607.03;;;7.64;100.00
71774;BME280;59607;52.130;5.430;2023-01-30T04:39:29;101623.66;;;7.63;100.00
71774;BME280;59607;52.130;5.430;2023-01-30T04:42:06;101610.38;;;7.66;100.00
71774;BME280;59607;52.130;5.430;2023-01-30T04:44:33;101596.59;;;7.64;100.00
71774;BME280;59607;52.130;5.430;2023-01-30T04:47:02;101595.78;;;7.63;100.00
71774;BME280;59607;52.130;5.430;2023-01-30T04:49:33;101608.84;;;7.63;100.00
71774;BME280;59607;52.130;5.430;2023-01-30T04:51:59;101616.69;;;7.63;100.00
71774;BME280;59607;52.130;5.430;2023-01-30T04:54:31;101621.78;;;7.65;100.00
71774;BME280;59607;52.130;5.430;2023-01-30T04:56:57;101612.03;;;7.67;100.00
71774;BME280;59607;52.130;5.430;2023-01-30T04:59:24;101615.47;;;7.68;100.00
71774;BME280;59607;52.130;5.430;2023-01-30T05:01:55;101603.38;;;7.67;100.00
71774;BME280;59607;52.130;5.430;2023-01-30T05:04:21;101612.97;;;7.66;100.00
71774;BME280;59607;52.130;5.430;2023-01-30T05:06:48;101616.56;;;7.65;100.00
71774;BME280;59607;52.130;5.430;2023-01-30T05:09:19;101619.16;;;7.65;100.00
71774;BME280;59607;52.130;5.430;2023-01-30T05:11:45;101617.38;;;7.65;100.00
71774;BME280;59607;52.130;5.430;2023-01-30T05:14:12;101621.91;;;7.63;100.00
71774;BME280;59607;52.130;5.430;2023-01-30T05:16:38;101623.66;;;7.63;100.00
71774;BME280;59607;52.130;5.430;2023-01-30T05:19:04;101619.41;;;7.62;100.00
71774;BME280;59607;52.130;5.430;2023-01-30T05:21:31;101610.63;;;7.63;100.00
71774;BME280;59607;52.130;5.430;2023-01-30T05:23:57;101623.78;;;7.61;100.00
71774;BME280;59607;52.130;5.430;2023-01-30T05:26:29;101622.16;;;7.60;100.00
71774;BME280;59607;52.130;5.430;2023-01-30T05:28:56;101616.94;;;7.60;100.00
71774;BME280;59607;52.130;5.430;2023-01-30T05:31:31;101621.44;;;7.58;100.00
71774;BME280;59607;52.130;5.430;2023-01-30T05:33:57;101640.41;;;7.60;100.00
71774;BME280;59607;52.130;5.430;2023-01-30T05:36:24;101639.00;;;7.56;100.00
71774;BME280;59607;52.130;5.430;2023-01-30T05:38:56;101643.78;;;7.51;100.00
71774;BME280;59607;52.130;5.430;2023-01-30T05:41:22;101654.44;;;7.48;100.00
71774;BME280;59607;52.130;5.430;2023-01-30T05:43:59;101646.16;;;7.43;100.00
71774;BME280;59607;52.130;5.430;2023-01-30T05:46:25;101652.44;;;7.40;100.00
71774;BME280;59607;52.130;5.430;2023-01-30T05:48:55;101659.44;;;7.39;100.00
71774;BME280;59607;52.130;5.430;2023-01-30T05:51:23;101642.25;;;7.37;100.00
71774;BME280;59607;52.130;5.430;2023-01-30T05:53:50;101647.81;;;7.32;100.00
71774;BME280;59607;52.130;5.430;2023-01-30T05:56:19;101645.56;;;7.27;100.00
71774;BME280;59607;52.130;5.430;2023-01-30T05:58:56;101644.97;;;7.24;100.00
71774;BME280;59607;52.130;5.430;2023-01-30T06:01:28;101643.22;;;7.24;100.00
71774;BME280;59607;52.130;5.430;2023-01-30T06:03:56;101638.34;;;7.20;100.00
71774;BME280;59607;52.130;5.430;2023-01-30T06:06:24;101631.03;;;7.13;100.00
71774;BME280;59607;52.130;5.430;2023-01-30T06:08:55;101649.63;;;7.09;100.00
71774;BME280;59607;52.130;5.430;2023-01-30T06:11:22;101653.19;;;6.96;100.00
71774;BME280;59607;52.130;5.430;2023-01-30T06:13:54;101652.00;;;6.89;100.00
71774;BME280;59607;52.130;5.430;2023-01-30T06:16:20;101675.72;;;6.86;100.00
71774;BME280;59607;52.130;5.430;2023-01-30T06:18:47;101668.56;;;6.76;100.00
71774;BME280;59607;52.130;5.430;2023-01-30T06:21:19;101659.34;;;6.72;100.00
71774;BME280;59607;52.130;5.430;2023-01-30T06:23:58;101673.22;;;6.73;100.00
71774;BME280;59607;52.130;5.430;2023-01-30T06:26:24;101680.44;;;6.69;100.00
71774;BME280;59607;52.130;5.430;2023-01-30T06:28:52;101665.38;;;6.61;100.00
71774;BME280;59607;52.130;5.430;2023-01-30T06:31:23;101655.19;;;6.58;100.00
71774;BME280;59607;52.130;5.430;2023-01-30T06:33:50;101661.53;;;6.54;100.00
71774;BME280;59607;52.130;5.430;2023-01-30T06:36:19;101657.63;;;6.48;100.00
71774;BME280;59607;52.130;5.430;2023-01-30T06:38:46;101657.16;;;6.43;100.00
71774;BME280;59607;52.130;5.430;2023-01-30T06:41:13;101672.78;;;6.43;100.00
71774;BME280;59607;52.130;5.430;2023-01-30T06:43:43;101674.66;;;6.41;100.00
71774;BME280;59607;52.130;5.430;2023-01-30T06:46:09;101669.91;;;6.35;100.00
71774;BME280;59607;52.130;5.430;2023-01-30T06:48:35;101665.53;;;6.35;100.00
71774;BME280;59607;52.130;5.430;2023-01-30T06:51:05;101674.50;;;6.31;100.00
71774;BME280;59607;52.130;5.430;2023-01-30T06:53:35;101664.94;;;6.32;100.00
71774;BME280;59607;52.130;5.430;2023-01-30T06:56:01;101667.75;;;6.28;100.00
71774;BME280;59607;52.130;5.430;2023-01-30T06:58:37;101682.78;;;6.25;100.00
71774;BME280;59607;52.130;5.430;2023-01-30T07:01:04;101682.91;;;6.23;100.00
71774;BME280;59607;52.130;5.430;2023-01-30T07:03:34;101678.88;;;6.19;100.00
71774;BME280;59607;52.130;5.430;2023-01-30T07:06:09;101685.84;;;6.19;100.00
71774;BME280;59607;52.130;5.430;2023-01-30T07:08:42;101692.41;;;6.24;100.00
71774;BME280;59607;52.130;5.430;2023-01-30T07:11:09;101700.91;;;6.26;100.00
71774;BME280;59607;52.130;5.430;2023-01-30T07:13:38;101696.88;;;6.22;100.00
71774;BME280;59607;52.130;5.430;2023-01-30T07:16:05;101714.38;;;6.20;100.00
71774;BME280;59607;52.130;5.430;2023-01-30T07:18:31;101721.34;;;6.20;100.00
71774;BME280;59607;52.130;5.430;2023-01-30T07:21:01;101730.13;;;6.19;100.00
71774;BME280;59607;52.130;5.430;2023-01-30T07:23:30;101734.50;;;6.18;100.00
71774;BME280;59607;52.130;5.430;2023-01-30T07:25:57;101729.50;;;6.15;100.00
71774;BME280;59607;52.130;5.430;2023-01-30T07:28:26;101718.16;;;6.16;100.00
71774;BME280;59607;52.130;5.430;2023-01-30T07:30:53;101726.91;;;6.15;100.00
71774;BME280;59607;52.130;5.430;2023-01-30T07:33:19;101739.13;;;6.14;100.00
71774;BME280;59607;52.130;5.430;2023-01-30T07:35:56;101736.75;;;6.11;100.00
71774;BME280;59607;52.130;5.430;2023-01-30T07:38:22;101734.94;;;6.12;100.00
71774;BME280;59607;52.130;5.430;2023-01-30T07:40:58;101734.94;;;6.12;100.00
71774;BME280;59607;52.130;5.430;2023-01-30T07:43:25;101725.16;;;6.15;100.00
71774;BME280;59607;52.130;5.430;2023-01-30T07:45:51;101741.16;;;6.22;100.00
71774;BME280;59607;52.130;5.430;2023-01-30T07:48:23;101728.97;;;6.23;99.70
71774;BME280;59607;52.130;5.430;2023-01-30T07:50:49;101735.13;;;6.22;100.00
71774;BME280;59607;52.130;5.430;2023-01-30T07:53:19;101734.31;;;6.21;100.00
71774;BME280;59607;52.130;5.430;2023-01-30T07:55:45;101736.91;;;6.21;100.00
71774;BME280;59607;52.130;5.430;2023-01-30T07:58:13;101741.06;;;6.24;99.73
71774;BME280;59607;52.130;5.430;2023-01-30T08:00:48;101739.19;;;6.26;99.40
71774;BME280;59607;52.130;5.430;2023-01-30T08:03:15;101736.22;;;6.31;99.42
71774;BME280;59607;52.130;5.430;2023-01-30T08:05:51;101745.59;;;6.33;99.70
71774;BME280;59607;52.130;5.430;2023-01-30T08:08:20;101744.75;;;6.33;99.04
71774;BME280;59607;52.130;5.430;2023-01-30T08:10:53;101731.72;;;6.33;98.86
71774;BME280;59607;52.130;5.430;2023-01-30T08:13:19;101733.41;;;6.34;98.69
71774;BME280;59607;52.130;5.430;2023-01-30T08:15:52;101737.66;;;6.35;99.26
71774;BME280;59607;52.130;5.430;2023-01-30T08:18:20;101757.34;;;6.39;99.35
71774;BME280;59607;52.130;5.430;2023-01-30T08:20:47;101751.69;;;6.45;98.86
71774;BME280;59607;52.130;5.430;2023-01-30T08:23:16;101760.47;;;6.56;98.47
71774;BME280;59607;52.130;5.430;2023-01-30T08:25:44;101759.59;;;6.68;97.30
71774;BME280;59607;52.130;5.430;2023-01-30T08:28:11;101763.16;;;6.78;96.15
71774;BME280;59607;52.130;5.430;2023-01-30T08:30:53;101766.03;;;6.87;95.71
71774;BME280;59607;52.130;5.430;2023-01-30T08:33:27;101775.88;;;6.95;95.73
71774;BME280;59607;52.130;5.430;2023-01-30T08:35:54;101777.22;;;7.00;95.65
71774;BME280;59607;52.130;5.430;2023-01-30T08:38:35;101787.41;;;7.03;94.52
71774;BME280;59607;52.130;5.430;2023-01-30T08:41:08;101777.91;;;7.02;94.30
71774;BME280;59607;52.130;5.430;2023-01-30T08:43:35;101782.06;;;7.05;93.85
71774;BME280;59607;52.130;5.430;2023-01-30T08:46:02;101779.47;;;7.05;94.31
71774;BME280;59607;52.130;5.430;2023-01-30T08:48:42;101774.50;;;7.02;93.39
71774;BME280;59607;52.130;5.430;2023-01-30T08:51:19;101766.66;;;7.02;92.58
71774;BME280;59607;52.130;5.430;2023-01-30T08:53:45;101774.38;;;7.03;93.02
71774;BME280;59607;52.130;5.430;2023-01-30T08:56:12;101776.75;;;7.07;94.11
71774;BME280;59607;52.130;5.430;2023-01-30T08:58:39;101784.44;;;7.08;93.05
71774;BME280;59607;52.130;5.430;2023-01-30T09:01:09;101788.59;;;7.11;92.66
71774;BME280;59607;52.130;5.430;2023-01-30T09:03:42;101778.88;;;7.13;93.88
71774;BME280;59607;52.130;5.430;2023-01-30T09:06:08;101790.72;;;7.17;93.29
71774;BME280;59607;52.130;5.430;2023-01-30T09:08:38;101800.94;;;7.20;93.05
71774;BME280;59607;52.130;5.430;2023-01-30T09:11:05;101801.66;;;7.22;92.07
71774;BME280;59607;52.130;5.430;2023-01-30T09:13:33;101808.44;;;7.25;92.64
71774;BME280;59607;52.130;5.430;2023-01-30T09:16:06;101807.84;;;7.21;92.04
71774;BME280;59607;52.130;5.430;2023-01-30T09:18:33;101814.72;;;7.22;92.04
71774;BME280;59607;52.130;5.430;2023-01-30T09:21:04;101825.03;;;7.24;91.32
71774;BME280;59607;52.130;5.430;2023-01-30T09:23:30;101822.06;;;7.28;91.34
71774;BME280;59607;52.130;5.430;2023-01-30T09:25:57;101829.91;;;7.28;91.95
71774;BME280;59607;52.130;5.430;2023-01-30T09:28:25;101830.00;;;7.27;91.66
71774;BME280;59607;52.130;5.430;2023-01-30T09:30:58;101813.66;;;7.25;92.35
71774;BME280;59607;52.130;5.430;2023-01-30T09:33:26;101827.28;;;7.28;91.99
71774;BME280;59607;52.130;5.430;2023-01-30T09:35:57;101831.34;;;7.33;91.99
71774;BME280;59607;52.130;5.430;2023-01-30T09:38:24;101822.31;;;7.37;90.61
71774;BME280;59607;52.130;5.430;2023-01-30T09:50:44;101846.91;;;7.57;89.24
71774;BME280;59607;52.130;5.430;2023-01-30T09:56:13;101844.44;;;7.56;88.39
71774;BME280;59607;52.130;5.430;2023-01-30T09:58:51;101844.78;;;7.51;88.76
71774;BME280;59607;52.130;5.430;2023-01-30T10:01:28;101852.69;;;7.49;89.49
71774;BME280;59607;52.130;5.430;2023-01-30T10:04:14;101851.06;;;7.48;89.62
71774;BME280;59607;52.130;5.430;2023-01-30T10:06:53;101858.88;;;7.48;89.62
71774;BME280;59607;52.130;5.430;2023-01-30T10:10:01;101864.09;;;7.48;90.09
71774;BME280;59607;52.130;5.430;2023-01-30T10:13:08;101861.25;;;7.51;90.17
71774;BME280;59607;52.130;5.430;2023-01-30T10:28:17;101891.66;;;7.75;88.44
71774;BME280;59607;52.130;5.430;2023-01-30T10:30:50;101887.38;;;7.74;86.32
71774;BME280;59607;52.130;5.430;2023-01-30T10:33:25;101892.72;;;7.73;87.27
71774;BME280;59607;52.130;5.430;2023-01-30T10:36:05;101887.50;;;7.73;87.46
71774;BME280;59607;52.130;5.430;2023-01-30T10:38:53;101885.75;;;7.73;87.54
71774;BME280;59607;52.130;5.430;2023-01-30T10:41:35;101892.84;;;7.71;86.00
71774;BME280;59607;52.130;5.430;2023-01-30T10:44:13;101888.34;;;7.73;86.29
71774;BME280;59607;52.130;5.430;2023-01-30T10:47:02;101900.44;;;7.74;85.52
71774;BME280;59607;52.130;5.430;2023-01-30T10:49:46;101901.16;;;7.76;85.60
71774;BME280;59607;52.130;5.430;2023-01-30T10:55:24;101895.72;;;7.80;85.51
71774;BME280;59607;52.130;5.430;2023-01-30T11:01:06;101896.19;;;7.96;85.82
71774;BME280;59607;52.130;5.430;2023-01-30T11:04:21;101899.38;;;8.23;83.23
71774;BME280;59607;52.130;5.430;2023-01-30T11:06:30;101895.75;;;8.47;81.19
71774;BME280;59607;52.130;5.430;2023-01-30T11:09:07;101899.34;;;8.57;81.71
71774;BME280;59607;52.130;5.430;2023-01-30T11:11:53;101912.53;;;8.56;82.05
71774;BME280;59607;52.130;5.430;2023-01-30T11:15:31;101890.28;;;8.61;81.46
71774;BME280;59607;52.130;5.430;2023-01-30T11:18:07;101898.63;;;8.55;80.29
71774;BME280;59607;52.130;5.430;2023-01-30T11:21:08;101893.41;;;8.55;80.43
71774;BME280;59607;52.130;5.430;2023-01-30T11:23:41;101891.00;;;8.52;78.69
71774;BME280;59607;52.130;5.430;2023-01-30T11:26:29;101889.72;;;8.46;80.13
71774;BME280;59607;52.130;5.430;2023-01-30T11:29:28;101890.06;;;8.53;80.61
71774;BME280;59607;52.130;5.430;2023-01-30T11:32:11;101889.34;;;8.51;79.25
71774;BME280;59607;52.130;5.430;2023-01-30T11:34:42;101886.84;;;8.49;79.37
71774;BME280;59607;52.130;5.430;2023-01-30T11:37:24;101887.22;;;8.45;79.28
71774;BME280;59607;52.130;5.430;2023-01-30T11:39:52;101891.84;;;8.52;77.65
71774;BME280;59607;52.130;5.430;2023-01-30T11:42:29;101878.31;;;8.59;77.74
71774;BME280;59607;52.130;5.430;2023-01-30T11:44:59;101890.03;;;8.64;77.62
71774;BME280;59607;52.130;5.430;2023-01-30T11:47:52;101887.25;;;8.77;78.43
71774;BME280;59607;52.130;5.430;2023-01-30T11:50:40;101894.81;;;8.71;77.27
71774;BME280;59607;52.130;5.430;2023-01-30T11:53:37;101914.75;;;8.72;78.48
71774;BME280;59607;52.130;5.430;2023-01-30T11:56:34;101896.31;;;8.73;76.52
71774;BME280;59607;52.130;5.430;2023-01-30T12:11:24;101911.16;;;8.84;76.85
71774;BME280;59607;52.130;5.430;2023-01-30T12:14:03;101906.03;;;8.83;76.58
71774;BME280;59607;52.130;5.430;2023-01-30T12:16:56;101926.50;;;8.77;77.02
71774;BME280;59607;52.130;5.430;2023-01-30T12:19:39;101944.59;;;8.81;77.79
71774;BME280;59607;52.130;5.430;2023-01-30T12:22:18;101924.84;;;8.76;76.29
71774;BME280;59607;52.130;5.430;2023-01-30T12:24:58;101929.25;;;8.76;76.99
71774;BME280;59607;52.130;5.430;2023-01-30T12:28:21;101929.38;;;8.74;75.63
71774;BME280;59607;52.130;5.430;2023-01-30T12:30:48;101917.50;;;8.70;75.87
71774;BME280;59607;52.130;5.430;2023-01-30T12:33:31;101926.44;;;8.68;75.48
71774;BME280;59607;52.130;5.430;2023-01-30T12:36:14;101927.13;;;8.70;74.35
71774;BME280;59607;52.130;5.430;2023-01-30T12:41:37;101942.00;;;8.69;75.83
71774;BME280;59607;52.130;5.430;2023-01-30T12:44:18;101931.28;;;8.72;75.25
71774;BME280;59607;52.130;5.430;2023-01-30T12:55:50;101966.09;;;8.73;74.31
71774;BME280;59607;52.130;5.430;2023-01-30T13:01:27;101963.63;;;8.60;74.41
71774;BME280;59607;52.130;5.430;2023-01-30T13:04:35;101961.03;;;8.60;74.58
71774;BME280;59607;52.130;5.430;2023-01-30T13:10:35;101948.31;;;8.55;73.41
71774;BME280;59607;52.130;5.430;2023-01-30T13:13:24;101976.97;;;8.57;72.92
71774;BME280;59607;52.130;5.430;2023-01-30T13:15:59;101963.50;;;8.61;72.29
71774;BME280;59607;52.130;5.430;2023-01-30T13:18:45;101959.38;;;8.59;71.59
71774;BME280;59607;52.130;5.430;2023-01-30T13:21:48;101973.41;;;8.58;71.54
71774;BME280;59607;52.130;5.430;2023-01-30T13:24:37;101978.50;;;8.59;72.94
71774;BME280;59607;52.130;5.430;2023-01-30T13:27:14;101982.19;;;8.57;72.48
71774;BME280;59607;52.130;5.430;2023-01-30T13:29:59;101993.59;;;8.56;72.40
71774;BME280;59607;52.130;5.430;2023-01-30T13:32:46;101993.59;;;8.56;72.87
71774;BME280;59607;52.130;5.430;2023-01-30T13:35:18;101976.84;;;8.58;72.40
71774;BME280;59607;52.130;5.430;2023-01-30T13:37:48;102001.22;;;8.59;72.78
71774;BME280;59607;52.130;5.430;2023-01-30T13:40:42;102008.09;;;8.60;73.31
71774;BME280;59607;52.130;5.430;2023-01-30T13:43:35;102011.78;;;8.57;73.23
71774;BME280;59607;52.130;5.430;2023-01-30T13:46:08;102012.28;;;8.62;73.20
71774;BME280;59607;52.130;5.430;2023-01-30T13:48:52;102037.09;;;8.68;73.19
71774;BME280;59607;52.130;5.430;2023-01-30T13:57:14;102030.69;;;8.72;72.77
71774;BME280;59607;52.130;5.430;2023-01-30T14:00:29;102028.31;;;8.69;73.58
71774;BME280;59607;52.130;5.430;2023-01-30T14:08:46;102040.31;;;8.60;71.79
71774;BME280;59607;52.130;5.430;2023-01-30T14:11:55;102048.28;;;8.59;72.58
71774;BME280;59607;52.130;5.430;2023-01-30T14:14:30;102045.66;;;8.59;72.52
71774;BME280;59607;52.130;5.430;2023-01-30T14:17:12;102061.34;;;8.59;72.96
71774;BME280;59607;52.130;5.430;2023-01-30T14:26:07;102075.94;;;8.50;73.55
71774;BME280;59607;52.130;5.430;2023-01-30T14:28:47;102083.09;;;8.48;72.99
71774;BME280;59607;52.130;5.430;2023-01-30T14:31:48;102087.72;;;8.44;72.68
71774;BME280;59607;52.130;5.430;2023-01-30T14:40:27;102120.50;;;8.37;74.06
71774;BME280;59607;52.130;5.430;2023-01-30T14:45:55;102136.91;;;8.39;74.89
71774;BME280;59607;52.130;5.430;2023-01-30T14:59:37;102146.84;;;8.34;75.80
71774;BME280;59607;52.130;5.430;2023-01-30T15:04:57;102150.09;;;8.37;75.32
71774;BME280;59607;52.130;5.430;2023-01-30T15:21:25;102178.34;;;8.32;76.86
71774;BME280;59607;52.130;5.430;2023-01-30T15:33:17;102198.78;;;8.27;76.46
71774;BME280;59607;52.130;5.430;2023-01-30T15:35:57;102192.72;;;8.26;76.18
71774;BME280;59607;52.130;5.430;2023-01-30T15:38:33;102205.91;;;8.25;76.45
71774;BME280;59607;52.130;5.430;2023-01-30T15:41:02;102206.00;;;8.23;76.93
71774;BME280;59607;52.130;5.430;2023-01-30T15:43:48;102220.03;;;8.22;77.62
71774;BME280;59607;52.130;5.430;2023-01-30T15:51:44;102229.25;;;8.15;77.35
71774;BME280;59607;52.130;5.430;2023-01-30T15:54:21;102232.84;;;8.14;77.42
71774;BME280;59607;52.130;5.430;2023-01-30T15:56:49;102232.22;;;8.10;77.89
71774;BME280;59607;52.130;5.430;2023-01-30T15:59:37;102234.81;;;8.10;78.55
71774;BME280;59607;52.130;5.430;2023-01-30T16:02:32;102238.59;;;8.06;78.40
71774;BME280;59607;52.130;5.430;2023-01-30T16:05:21;102253.06;;;7.99;78.96
71774;BME280;59607;52.130;5.430;2023-01-30T16:07:53;102241.25;;;7.93;79.60
71774;BME280;59607;52.130;5.430;2023-01-30T16:10:28;102257.66;;;7.95;80.57
71774;BME280;59607;52.130;5.430;2023-01-30T16:12:57;102261.97;;;7.96;81.46